Time;durP1;ratioP1;P1;durP2;ratioP2;P2;SDS_P1;SDS_P2;PMS_P1;PMS_P2;Temp;Humidity;BMP_temperature;BMP_pressure;BME280_temperature;BME280_humidity;BME280_pressure;Samples;Min_cycle;Max_cycle;Signal;HPM_P1;HPM_P2
2022/08/03 00:00:43;;;;;;;7.60;4.22;;;17.50;99.90;;;;;;5047402;28;20128;-76
2022/08/03 00:03:09;;;;;;;9.07;4.07;;;17.40;99.90;;;;;;5053990;28;20100;-76
2022/08/03 00:05:35;;;;;;;9.80;4.25;;;17.40;99.90;;;;;;5054276;28;20466;-76
2022/08/03 00:08:01;;;;;;;8.60;4.15;;;17.50;99.90;;;;;;5053878;28;20021;-76
2022/08/03 00:10:27;;;;;;;11.00;3.58;;;17.50;99.90;;;;;;5046782;28;20121;-77
2022/08/03 00:12:53;;;;;;;10.48;3.72;;;17.50;99.90;;;;;;5033259;28;20092;-76
2022/08/03 00:15:19;;;;;;;8.05;3.90;;;17.40;99.90;;;;;;5034809;28;20029;-76
2022/08/03 00:17:44;;;;;;;11.75;4.22;;;17.40;99.90;;;;;;5034175;28;20025;-77
2022/08/03 00:20:10;;;;;;;8.13;3.78;;;17.40;99.90;;;;;;5033966;28;20025;-76
2022/08/03 00:22:36;;;;;;;13.23;3.95;;;17.10;99.90;;;;;;5033902;28;20014;-76
2022/08/03 00:25:02;;;;;;;12.27;4.30;;;17.30;99.90;;;;;;5052844;28;20048;-77
2022/08/03 00:27:28;;;;;;;10.68;4.10;;;17.20;99.90;;;;;;5053852;28;20021;-76
2022/08/03 00:29:53;;;;;;;16.33;3.92;;;17.10;78.80;;;;;;5053551;28;20028;-77
2022/08/03 00:32:19;;;;;;;13.13;4.80;;;17.10;99.90;;;;;;5033754;28;20523;-76
2022/08/03 00:34:44;;;;;;;8.95;4.25;;;17.10;99.90;;;;;;5052433;28;20126;-76
2022/08/03 00:37:10;;;;;;;11.30;4.32;;;17.10;99.90;;;;;;5053585;28;20040;-76
2022/08/03 00:39:35;;;;;;;8.82;3.50;;;17.20;99.90;;;;;;5041664;28;20017;-77
2022/08/03 00:42:03;;;;;;;12.60;4.10;;;17.20;99.90;;;;;;5034563;28;20104;-76
2022/08/03 00:44:28;;;;;;;10.05;3.88;;;17.30;99.90;;;;;;5038549;28;20503;-76
2022/08/03 00:46:54;;;;;;;10.82;3.65;;;17.20;99.90;;;;;;5053585;28;20033;-76
2022/08/03 00:49:19;;;;;;;8.52;3.22;;;17.20;99.90;;;;;;5053489;28;20029;-76
2022/08/03 00:51:46;;;;;;;13.20;3.13;;;17.20;99.90;;;;;;5053465;28;20029;-76
2022/08/03 00:54:13;;;;;;;9.60;3.75;;;17.10;99.90;;;;;;5053144;28;20017;-77
2022/08/03 00:56:39;;;;;;;15.40;3.83;;;17.10;99.90;;;;;;5053253;28;20106;-77
2022/08/03 00:59:05;;;;;;;7.43;3.28;;;17.20;99.90;;;;;;5053275;28;20108;-77
2022/08/03 01:01:31;;;;;;;11.77;3.50;;;17.20;99.90;;;;;;5053277;28;20059;-76
2022/08/03 01:03:56;;;;;;;8.52;3.15;;;17.10;99.90;;;;;;5052985;28;20116;-76
2022/08/03 01:06:28;;;;;;;11.73;3.78;;;17.10;99.90;;;;;;5052944;28;20056;-76
2022/08/03 01:08:57;;;;;;;11.82;3.33;;;17.30;99.90;;;;;;5033186;28;20104;-76
2022/08/03 01:11:27;;;;;;;15.65;4.47;;;17.30;99.90;;;;;;5033087;28;20025;-76
2022/08/03 01:14:00;;;;;;;15.95;3.95;;;17.20;99.90;;;;;;5033134;28;20668;-76
2022/08/03 01:16:30;;;;;;;8.52;3.45;;;17.20;99.90;;;;;;5037932;28;20086;-76
2022/08/03 01:19:11;;;;;;;12.55;4.10;;;17.20;99.90;;;;;;5033089;28;20078;-77
2022/08/03 01:22:15;;;;;;;11.38;3.45;;;17.30;99.90;;;;;;5045965;28;20468;-76
2022/08/03 01:25:16;;;;;;;12.45;3.30;;;17.30;99.90;;;;;;5048888;28;20032;-76
2022/08/03 01:28:18;;;;;;;10.90;3.30;;;17.30;99.90;;;;;;4997701;28;20076;-77
2022/08/03 01:30:45;;;;;;;15.02;3.90;;;17.30;99.90;;;;;;5032684;28;20025;-77
2022/08/03 01:33:19;;;;;;;12.52;3.33;;;17.40;99.90;;;;;;5032587;28;20405;-77
2022/08/03 01:36:09;;;;;;;9.15;3.45;;;17.40;99.90;;;;;;5033361;28;20137;-77
2022/08/03 01:38:40;;;;;;;12.40;3.47;;;17.40;99.90;;;;;;5033292;28;20522;-77
2022/08/03 01:41:34;;;;;;;13.25;3.33;;;17.20;99.90;;;;;;5039954;28;20025;-76
2022/08/03 01:44:02;;;;;;;9.95;4.00;;;17.40;99.90;;;;;;5034752;28;20042;-77
2022/08/03 01:46:29;;;;;;;12.30;3.85;;;17.40;99.90;;;;;;5053123;28;20053;-77
2022/08/03 01:48:57;;;;;;;10.45;3.30;;;17.40;99.90;;;;;;5053546;28;20025;-77
2022/08/03 01:51:22;;;;;;;10.82;3.50;;;17.30;99.90;;;;;;5053162;28;20067;-77
2022/08/03 01:53:50;;;;;;;14.88;3.90;;;17.30;99.90;;;;;;5052567;28;20060;-77
2022/08/03 01:56:17;;;;;;;10.98;3.63;;;17.30;99.90;;;;;;5052656;28;20024;-76
2022/08/03 01:58:45;;;;;;;18.65;4.20;;;17.30;99.90;;;;;;5053022;28;20025;-77
2022/08/03 02:01:12;;;;;;;11.73;3.58;;;17.20;99.90;;;;;;5052811;28;20057;-77
2022/08/03 02:03:41;;;;;;;12.30;3.25;;;17.10;99.90;;;;;;5053403;28;20032;-76
2022/08/03 02:06:10;;;;;;;12.27;3.17;;;17.20;99.90;;;;;;5052950;28;20045;-77
2022/08/03 02:08:38;;;;;;;14.88;3.50;;;17.20;99.90;;;;;;5052797;28;20129;-76
2022/08/03 02:11:05;;;;;;;10.18;3.10;;;17.10;99.90;;;;;;5052837;28;20084;-77
2022/08/03 02:13:33;;;;;;;12.35;3.50;;;17.20;99.90;;;;;;5045270;28;20067;-76
2022/08/03 02:16:00;;;;;;;12.95;3.85;;;17.10;99.90;;;;;;5033082;28;20362;-77
2022/08/03 02:18:27;;;;;;;10.75;3.00;;;17.10;99.90;;;;;;5036527;28;20108;-77
2022/08/03 02:20:53;;;;;;;14.80;4.10;;;17.20;99.90;;;;;;5052836;28;20024;-77
2022/08/03 02:23:18;;;;;;;11.32;3.08;;;17.30;99.90;;;;;;5052888;28;20021;-77
2022/08/03 02:25:56;;;;;;;8.07;3.25;;;17.10;99.90;;;;;;5052976;28;20414;-76
2022/08/03 02:28:29;;;;;;;10.32;3.47;;;17.20;99.90;;;;;;5033281;28;20041;-77
2022/08/03 02:30:57;;;;;;;12.85;3.78;;;17.10;99.90;;;;;;5032762;28;20369;-77
2022/08/03 02:33:42;;;;;;;9.68;3.17;;;17.10;99.90;;;;;;5032593;28;20056;-77
2022/08/03 02:36:10;;;;;;;10.20;3.13;;;17.00;99.90;;;;;;5035995;28;20055;-77
2022/08/03 02:38:39;;;;;;;10.43;3.28;;;17.00;99.90;;;;;;5056967;28;20424;-77
2022/08/03 02:41:12;;;;;;;9.85;3.33;;;17.10;99.90;;;;;;5040245;28;20071;-77
2022/08/03 02:43:40;;;;;;;10.90;3.20;;;17.00;99.90;;;;;;5036845;28;20044;-77
2022/08/03 02:46:08;;;;;;;11.43;3.60;;;17.00;99.90;;;;;;5042937;28;20396;-78
2022/08/03 02:48:35;;;;;;;8.65;3.22;;;17.00;99.90;;;;;;5056685;28;20016;-77
2022/08/03 02:51:02;;;;;;;10.63;3.45;;;16.90;99.90;;;;;;5040817;28;20025;-77
2022/08/03 02:53:29;;;;;;;14.25;3.78;;;17.00;99.90;;;;;;5055902;28;20373;-76
2022/08/03 02:55:56;;;;;;;12.60;3.72;;;17.10;99.90;;;;;;5038204;28;20029;-77
2022/08/03 02:58:23;;;;;;;7.50;3.58;;;17.00;99.90;;;;;;5046049;28;20024;-77
2022/08/03 03:00:50;;;;;;;8.07;3.38;;;17.00;99.90;;;;;;5055920;28;20023;-77
2022/08/03 03:03:17;;;;;;;14.65;3.70;;;17.00;99.90;;;;;;5056288;28;20017;-77
2022/08/03 03:05:43;;;;;;;8.13;3.38;;;17.00;99.90;;;;;;5055876;28;20021;-77
2022/08/03 03:08:12;;;;;;;12.50;3.70;;;17.00;99.90;;;;;;5044727;28;20487;-77
2022/08/03 03:10:38;;;;;;;10.50;3.75;;;16.90;99.90;;;;;;5035276;28;20100;-77
2022/08/03 03:13:05;;;;;;;8.05;3.20;;;16.90;99.90;;;;;;5035656;28;20413;-77
2022/08/03 03:15:34;;;;;;;10.60;3.65;;;16.90;99.90;;;;;;5035448;28;20056;-77
2022/08/03 03:18:00;;;;;;;10.63;4.07;;;16.90;99.90;;;;;;5035382;28;20022;-77
2022/08/03 03:20:27;;;;;;;15.93;4.43;;;16.90;99.90;;;;;;5035261;28;20036;-77
2022/08/03 03:22:54;;;;;;;10.80;3.72;;;17.00;99.90;;;;;;5034965;28;20432;-76
2022/08/03 03:25:20;;;;;;;17.67;4.13;;;17.00;99.90;;;;;;5035040;28;20531;-77
2022/08/03 03:27:47;;;;;;;12.18;3.83;;;16.90;99.90;;;;;;5035135;28;20057;-76
2022/08/03 03:30:13;;;;;;;12.18;3.70;;;17.00;99.90;;;;;;5035250;28;20018;-77
2022/08/03 03:32:39;;;;;;;12.75;3.67;;;16.90;99.90;;;;;;5034795;28;20075;-77
2022/08/03 03:35:06;;;;;;;15.18;3.50;;;16.90;99.90;;;;;;5034911;28;20041;-77
2022/08/03 03:37:32;;;;;;;13.32;3.65;;;16.80;99.90;;;;;;5034817;28;20088;-77
2022/08/03 03:39:57;;;;;;;9.38;3.03;;;16.90;99.90;;;;;;5034913;28;20170;-77
2022/08/03 03:42:24;;;;;;;10.70;3.75;;;16.70;99.90;;;;;;5036703;28;20020;-77
2022/08/03 03:44:50;;;;;;;10.30;3.88;;;16.90;99.90;;;;;;5054499;28;20118;-77
2022/08/03 03:47:16;;;;;;;10.32;3.30;;;16.90;99.90;;;;;;5054225;28;20471;-77
2022/08/03 03:49:42;;;;;;;10.52;3.22;;;16.90;99.90;;;;;;5054449;28;20112;-77
2022/08/03 03:52:09;;;;;;;12.98;3.50;;;16.90;99.90;;;;;;5054000;28;20033;-76
2022/08/03 03:54:42;;;;;;;11.85;3.63;;;17.00;99.90;;;;;;5054037;28;20430;-77
2022/08/03 03:57:09;;;;;;;14.38;3.60;;;16.90;99.90;;;;;;5054225;28;20025;-76
2022/08/03 03:59:43;;;;;;;13.07;3.95;;;16.90;99.90;;;;;;5054218;28;20504;-76
2022/08/03 04:02:10;;;;;;;14.48;3.10;;;16.90;99.90;;;;;;5051981;28;20028;-77
2022/08/03 04:12:59;;;;;;;;;;;17.10;99.90;;;;;;5035026;28;20465;-77
2022/08/03 04:15:27;;;;;;;8.88;2.67;;;17.10;99.90;;;;;;5033807;28;20400;-77
2022/08/03 04:17:56;;;;;;;15.20;3.25;;;17.20;99.90;;;;;;5033893;28;20026;-76
2022/08/03 04:20:25;;;;;;;15.45;3.58;;;17.30;99.90;;;;;;5033910;28;20024;-77
2022/08/03 04:22:51;;;;;;;9.52;3.40;;;17.30;99.90;;;;;;5046824;28;20025;-77
2022/08/03 04:25:19;;;;;;;11.18;3.38;;;17.30;99.90;;;;;;5036670;28;20029;-77
2022/08/03 04:27:46;;;;;;;11.63;3.25;;;17.40;99.90;;;;;;5033737;28;20428;-77
2022/08/03 04:30:13;;;;;;;10.13;3.30;;;17.60;99.90;;;;;;5033792;28;20476;-77
2022/08/03 04:32:40;;;;;;;14.77;3.63;;;17.70;99.90;;;;;;5033376;28;20039;-77
2022/08/03 04:35:07;;;;;;;12.05;3.38;;;17.60;99.90;;;;;;5051586;28;20068;-77
2022/08/03 04:37:42;;;;;;;18.55;3.45;;;17.80;99.90;;;;;;5053495;28;20017;-77
2022/08/03 04:40:14;;;;;;;8.77;2.88;;;17.70;99.90;;;;;;5052460;28;20025;-77
2022/08/03 04:42:42;;;;;;;11.57;3.20;;;17.90;99.90;;;;;;5053781;28;20167;-77
2022/08/03 04:45:11;;;;;;;9.27;2.97;;;18.00;99.90;;;;;;5044050;28;20056;-76
2022/08/03 04:47:38;;;;;;;12.90;3.28;;;18.10;99.90;;;;;;5044627;28;20037;-76
2022/08/03 04:50:06;;;;;;;6.85;2.75;;;18.40;99.90;;;;;;5052874;28;20108;-76
2022/08/03 04:52:33;;;;;;;8.48;2.80;;;18.70;99.90;;;;;;5053122;28;20130;-77
2022/08/03 04:54:59;;;;;;;7.47;2.53;;;18.80;1.00;;;;;;5053209;28;20414;-76
2022/08/03 04:57:24;;;;;;;10.13;2.53;;;18.90;99.90;;;;;;5052962;28;20511;-76
2022/08/03 04:59:53;;;;;;;10.05;3.00;;;19.00;99.90;;;;;;5052189;28;20021;-76
2022/08/03 05:02:21;;;;;;;7.07;2.22;;;19.20;99.90;;;;;;5053082;28;20020;-76
2022/08/03 05:04:48;;;;;;;7.10;2.42;;;19.30;99.90;;;;;;5052564;28;20036;-76
2022/08/03 05:07:15;;;;;;;8.55;2.45;;;19.30;99.90;;;;;;5052780;28;20086;-76
2022/08/03 05:09:41;;;;;;;11.15;2.47;;;19.30;99.90;;;;;;5052553;28;20028;-76
2022/08/03 05:12:07;;;;;;;11.55;2.92;;;19.40;99.90;;;;;;5052682;28;20033;-76
2022/08/03 05:14:34;;;;;;;13.05;2.72;;;19.60;99.90;;;;;;5052630;28;20040;-76
2022/08/03 05:17:00;;;;;;;10.25;3.00;;;20.10;99.90;;;;;;5052894;28;20036;-76
2022/08/03 05:19:26;;;;;;;15.02;3.15;;;22.90;1.00;;;;;;5052351;28;20365;-74
2022/08/03 05:21:51;;;;;;;11.23;2.80;;;22.90;99.90;;;;;;5052199;28;20380;-73
2022/08/03 05:24:17;;;;;;;11.00;2.90;;;23.70;99.90;;;;;;5052428;28;20047;-75
2022/08/03 05:26:42;;;;;;;12.15;2.78;;;25.10;99.90;;;;;;5052303;28;20048;-75
2022/08/03 05:29:08;;;;;;;14.65;2.90;;;26.00;99.90;;;;;;5052488;28;20017;-77
2022/08/03 05:31:33;;;;;;;11.52;2.97;;;25.90;99.90;;;;;;5052271;28;20023;-74
2022/08/03 05:33:59;;;;;;;12.68;3.15;;;27.00;99.90;;;;;;5051765;28;20120;-75
2022/08/03 05:36:24;;;;;;;10.13;2.83;;;28.40;99.90;;;;;;5051987;28;20029;-75
2022/08/03 05:38:50;;;;;;;9.88;2.60;;;29.00;99.90;;;;;;5035849;28;20105;-75
2022/08/03 05:41:16;;;;;;;13.75;3.00;;;28.70;99.90;;;;;;5037955;28;20071;-77
2022/08/03 05:43:41;;;;;;;13.32;4.00;;;29.20;99.90;;;;;;5039819;28;20025;-77
2022/08/03 05:46:07;;;;;;;12.25;2.72;;;30.70;99.90;;;;;;5032399;28;20037;-77
2022/08/03 05:48:32;;;;;;;9.90;2.50;;;31.20;99.90;;;;;;5032336;28;20026;-76
2022/08/03 05:50:58;;;;;;;14.75;2.70;;;31.60;99.90;;;;;;5032373;28;20025;-77
2022/08/03 05:53:25;;;;;;;8.57;2.67;;;32.40;99.90;;;;;;5040754;28;20440;-77
2022/08/03 05:55:50;;;;;;;15.50;3.33;;;32.50;99.90;;;;;;5052487;28;20469;-78
2022/08/03 05:58:16;;;;;;;7.15;2.45;;;33.30;99.90;;;;;;5052359;28;20025;-77
2022/08/03 06:00:41;;;;;;;11.38;2.72;;;32.90;99.90;;;;;;5052089;28;20021;-77
2022/08/03 06:03:07;;;;;;;8.00;2.65;;;32.60;99.90;;;;;;5051992;28;20033;-77
2022/08/03 06:05:35;;;;;;;13.93;2.58;;;33.70;99.90;;;;;;5051954;28;20055;-77
2022/08/03 06:08:01;;;;;;;9.52;2.58;;;34.60;99.90;;;;;;5052279;28;20109;-77
2022/08/03 06:10:27;;;;;;;9.90;3.15;;;33.80;99.90;;;;;;5052629;28;20033;-77
2022/08/03 06:12:52;;;;;;;14.00;2.78;;;32.50;99.90;;;;;;5056185;28;20040;-78
2022/08/03 06:15:18;;;;;;;12.27;2.92;;;30.90;99.90;;;;;;5055943;28;20029;-77
2022/08/03 06:17:48;;;;;;;11.57;3.28;;;30.30;99.90;;;;;;5055942;28;20096;-77
2022/08/03 06:20:18;;;;;;;11.93;3.00;;;31.60;99.90;;;;;;5055674;28;20029;-77
2022/08/03 06:22:45;;;;;;;13.70;3.03;;;31.80;99.90;;;;;;5055898;28;20017;-77
2022/08/03 06:25:11;;;;;;;8.25;2.60;;;31.80;99.90;;;;;;5055690;28;20350;-77
2022/08/03 06:27:39;;;;;;;10.88;2.70;;;30.10;99.90;;;;;;5055607;28;20491;-76
2022/08/03 06:30:07;;;;;;;10.40;2.90;;;31.60;99.90;;;;;;5055479;28;20028;-77
2022/08/03 06:32:33;;;;;;;10.68;2.75;;;31.30;99.90;;;;;;5055926;28;20021;-77
2022/08/03 06:34:59;;;;;;;9.65;2.53;;;32.00;99.90;;;;;;5054744;28;20144;-77
2022/08/03 06:37:25;;;;;;;11.07;2.75;;;32.40;99.90;;;;;;5046554;28;20029;-77
2022/08/03 06:39:52;;;;;;;11.05;3.20;;;32.70;99.90;;;;;;5056196;28;20013;-76
2022/08/03 06:42:17;;;;;;;10.38;3.70;;;31.00;99.90;;;;;;5055263;28;20030;-78
2022/08/03 06:44:43;;;;;;;9.88;3.15;;;29.20;99.90;;;;;;5055245;28;20048;-78
2022/08/03 06:47:08;;;;;;;14.18;3.38;;;28.60;99.90;;;;;;5062918;28;20441;-78
2022/08/03 06:49:34;;;;;;;12.77;3.42;;;28.70;99.90;;;;;;5058250;28;20033;-78
2022/08/03 06:51:59;;;;;;;12.07;3.05;;;29.70;99.90;;;;;;5053162;28;20041;-78
2022/08/03 06:54:25;;;;;;;12.30;3.45;;;31.00;99.90;;;;;;5062386;28;20097;-79
2022/08/03 06:56:51;;;;;;;14.20;3.00;;;30.10;99.90;;;;;;5064605;28;20213;-78
2022/08/03 06:59:16;;;;;;;10.38;3.30;;;28.50;99.90;;;;;;5050955;28;20372;-75
2022/08/03 07:01:42;;;;;;;16.48;3.38;;;28.70;99.90;;;;;;5048101;28;20021;-76
2022/08/03 07:04:07;;;;;;;12.80;3.35;;;27.90;99.90;;;;;;5055022;28;20053;-76
2022/08/03 07:06:33;;;;;;;10.65;3.50;;;27.70;99.90;;;;;;5058784;28;20037;-78
2022/08/03 07:08:59;;;;;;;18.17;3.95;;;27.60;99.90;;;;;;5056217;28;20035;-78
2022/08/03 07:11:25;;;;;;;10.98;3.25;;;27.90;99.90;;;;;;5061237;28;20032;-79
2022/08/03 07:13:50;;;;;;;12.57;3.40;;;28.20;99.90;;;;;;5053725;28;20021;-79
2022/08/03 07:16:16;;;;;;;18.35;3.75;;;29.10;99.90;;;;;;5059140;28;20558;-78
2022/08/03 07:18:41;;;;;;;14.40;4.68;;;29.40;99.90;;;;;;5050601;28;20084;-79
2022/08/03 07:21:09;;;;;;;12.27;3.90;;;29.60;99.90;;;;;;5047783;28;20398;-79
2022/08/03 07:23:35;;;;;;;21.02;4.15;;;29.70;99.90;;;;;;5045248;28;20032;-80
2022/08/03 07:26:00;;;;;;;12.80;4.45;;;29.70;99.90;;;;;;5046658;28;20022;-79
2022/08/03 07:28:26;;;;;;;12.07;4.28;;;29.20;99.90;;;;;;5054736;28;20670;-78
2022/08/03 07:30:52;;;;;;;17.13;5.28;;;29.20;99.90;;;;;;5064767;28;20067;-78
2022/08/03 07:33:18;;;;;;;15.15;4.63;;;28.50;99.90;;;;;;5050078;28;20042;-79
2022/08/03 07:35:43;;;;;;;12.02;4.47;;;28.50;99.90;;;;;;5060297;28;20036;-79
2022/08/03 07:38:09;;;;;;;17.42;4.50;;;29.20;99.90;;;;;;5060297;28;20025;-79
2022/08/03 07:40:34;;;;;;;15.75;5.45;;;30.20;99.90;;;;;;5056315;28;20061;-79
2022/08/03 07:43:02;;;;;;;16.10;5.70;;;30.80;99.90;;;;;;5062610;28;20083;-78
2022/08/03 07:45:29;;;;;;;16.23;5.47;;;30.20;99.90;;;;;;5054731;28;20388;-79
2022/08/03 07:47:54;;;;;;;16.73;5.70;;;30.20;99.90;;;;;;5057565;28;20163;-78
2022/08/03 07:50:21;;;;;;;19.95;5.93;;;30.40;99.90;;;;;;5051770;28;21406;-76
2022/08/03 07:52:46;;;;;;;16.38;5.53;;;30.90;99.90;;;;;;5056820;28;20104;-76
2022/08/03 07:55:12;;;;;;;13.38;5.70;;;30.50;99.90;;;;;;5056910;28;20061;-76
2022/08/03 07:57:38;;;;;;;12.68;5.10;;;29.50;99.90;;;;;;5036484;28;20030;-76
2022/08/03 08:00:07;;;;;;;13.73;5.43;;;30.00;99.90;;;;;;5047541;28;20028;-76
2022/08/03 08:02:33;;;;;;;12.18;5.93;;;30.10;99.90;;;;;;5049927;28;20032;-76
2022/08/03 08:04:59;;;;;;;15.57;6.40;;;29.80;99.90;;;;;;5050395;28;20104;-75
2022/08/03 08:07:25;;;;;;;13.55;6.55;;;31.00;99.90;;;;;;5066843;28;20040;-78
2022/08/03 08:09:50;;;;;;;17.90;7.03;;;31.80;99.90;;;;;;5056363;28;20017;-78
2022/08/03 08:12:16;;;;;;;15.73;7.60;;;32.10;99.90;;;;;;5060552;28;20028;-78
2022/08/03 08:14:44;;;;;;;19.55;7.15;;;32.70;99.90;;;;;;5063838;28;20021;-79
2022/08/03 08:17:10;;;;;;;17.52;7.75;;;32.80;99.90;;;;;;5071574;28;20020;-79
2022/08/03 08:19:35;;;;;;;25.70;7.43;;;33.40;99.90;;;;;;5067017;28;20037;-79
2022/08/03 08:22:01;;;;;;;14.30;7.65;;;32.60;99.90;;;;;;5069299;28;20017;-79
2022/08/03 08:24:29;;;;;;;17.92;7.72;;;32.70;99.90;;;;;;5058076;28;20029;-79
2022/08/03 08:26:55;;;;;;;17.67;7.32;;;32.50;99.90;;;;;;5061076;28;20028;-79
2022/08/03 08:29:22;;;;;;;14.50;7.40;;;32.50;99.90;;;;;;5062902;28;20017;-79
2022/08/03 08:31:48;;;;;;;16.85;6.70;;;32.90;99.90;;;;;;5060491;28;20077;-80
2022/08/03 08:34:14;;;;;;;15.95;7.25;;;33.60;99.90;;;;;;5063704;28;20044;-80
2022/08/03 08:36:40;;;;;;;14.18;7.15;;;37.40;99.90;;;;;;5059523;28;20071;-80
2022/08/03 08:39:06;;;;;;;21.75;8.05;;;37.60;91.40;;;;;;5058221;28;20037;-80
2022/08/03 08:41:34;;;;;;;14.20;7.05;;;37.40;86.20;;;;;;5062569;28;20036;-79
2022/08/03 08:44:01;;;;;;;21.77;7.15;;;39.10;69.20;;;;;;5063324;28;20037;-81
2022/08/03 08:46:31;;;;;;;21.52;7.95;;;37.70;65.80;;;;;;5062539;28;20026;-82
2022/08/03 08:48:58;;;;;;;15.68;6.90;;;37.50;60.10;;;;;;5071998;28;20080;-82
2022/08/03 08:51:28;;;;;;;15.32;7.25;;;38.20;62.20;;;;;;5063894;28;20073;-81
2022/08/03 08:53:56;;;;;;;14.68;6.80;;;39.40;55.20;;;;;;5068512;28;20018;-83
2022/08/03 08:56:24;;;;;;;19.95;6.72;;;40.70;45.50;;;;;;5059824;28;20028;-83
2022/08/03 08:58:57;;;;;;;17.50;6.20;;;40.00;35.20;;;;;;5069040;28;20005;-82
2022/08/03 09:01:23;;;;;;;15.52;6.25;;;42.70;29.70;;;;;;5063262;28;20035;-83
2022/08/03 09:03:49;;;;;;;14.95;6.47;;;40.20;22.10;;;;;;5062783;28;20036;-82
2022/08/03 09:06:15;;;;;;;17.05;5.70;;;39.60;25.30;;;;;;5050737;28;20025;-82
2022/08/03 09:08:40;;;;;;;14.68;5.55;;;39.80;26.80;;;;;;5052753;28;20057;-82
2022/08/03 09:11:06;;;;;;;11.82;5.25;;;37.30;28.60;;;;;;5061131;28;20392;-81
2022/08/03 09:13:33;;;;;;;15.50;5.93;;;38.40;28.40;;;;;;5063328;28;20043;-82
2022/08/03 09:16:16;;;;;;;15.15;5.97;;;37.80;32.60;;;;;;5064889;28;20009;-82
2022/08/03 09:19:06;;;;;;;13.35;5.70;;;36.80;33.40;;;;;;5060428;28;20009;-82
2022/08/03 09:21:32;;;;;;;17.73;5.70;;;35.90;35.40;;;;;;5057066;28;20045;-82
2022/08/03 09:23:59;;;;;;;12.07;6.20;;;35.00;46.80;;;;;;5064518;28;20036;-81
2022/08/03 09:26:26;;;;;;;16.90;6.28;;;34.10;56.30;;;;;;5060975;28;20032;-81
2022/08/03 09:28:59;;;;;;;14.65;6.10;;;34.00;65.80;;;;;;5060617;28;20040;-81
2022/08/03 09:31:43;;;;;;;15.85;6.65;;;34.10;65.50;;;;;;5062852;28;20025;-81
2022/08/03 09:34:13;;;;;;;16.38;6.00;;;33.10;70.90;;;;;;5061131;28;20037;-81
2022/08/03 09:36:44;;;;;;;17.55;6.32;;;34.40;75.10;;;;;;5059563;28;20016;-82
2022/08/03 09:39:16;;;;;;;14.57;6.28;;;37.00;64.00;;;;;;5061976;28;20021;-82
2022/08/03 09:41:44;;;;;;;14.65;6.18;;;36.10;58.20;;;;;;5065186;28;20037;-82
2022/08/03 09:44:10;;;;;;;11.15;5.63;;;36.20;60.00;;;;;;5069222;28;20040;-81
2022/08/03 09:46:54;;;;;;;12.82;5.95;;;36.40;58.60;;;;;;5067381;28;20037;-81
2022/08/03 09:49:20;;;;;;;16.05;6.88;;;35.50;58.30;;;;;;5071123;28;20043;-81
2022/08/03 09:51:47;;;;;;;15.15;6.57;;;34.50;59.50;;;;;;5066388;28;20065;-81
2022/08/03 09:54:24;;;;;;;18.50;6.43;;;33.90;67.00;;;;;;5065427;28;20025;-81
2022/08/03 09:56:50;;;;;;;15.15;5.95;;;33.90;69.90;;;;;;5060914;28;20018;-81
2022/08/03 09:59:24;;;;;;;13.35;6.50;;;33.30;75.90;;;;;;5070292;28;20076;-81
2022/08/03 10:01:49;;;;;;;13.98;6.20;;;33.70;81.70;;;;;;5065044;28;20013;-81
2022/08/03 10:04:18;;;;;;;19.40;7.13;;;33.30;80.00;;;;;;5063173;28;20053;-81
2022/08/03 10:06:45;;;;;;;15.55;6.43;;;34.80;78.50;;;;;;5063458;28;20049;-81
2022/08/03 10:09:13;;;;;;;16.90;6.47;;;36.10;68.70;;;;;;5061007;28;20029;-81
2022/08/03 10:11:40;;;;;;;11.85;6.45;;;33.70;72.70;;;;;;5064383;28;20017;-81
2022/08/03 10:14:07;;;;;;;11.35;6.53;;;33.20;78.30;;;;;;5072536;28;20017;-81
2022/08/03 10:16:39;;;;;;;17.95;7.00;;;34.30;81.40;;;;;;5063593;28;20024;-81
2022/08/03 10:19:07;;;;;;;15.18;6.72;;;34.60;76.20;;;;;;5056988;28;20028;-81
2022/08/03 10:21:37;;;;;;;15.43;6.65;;;32.90;81.30;;;;;;5073763;28;20080;-81
2022/08/03 10:24:08;;;;;;;15.50;7.15;;;33.70;82.60;;;;;;5057677;28;20030;-82
2022/08/03 10:26:45;;;;;;;14.23;6.60;;;33.10;81.60;;;;;;5074555;28;20055;-81
2022/08/03 10:29:20;;;;;;;16.88;6.88;;;33.10;83.40;;;;;;5073821;28;20009;-81
2022/08/03 10:31:47;;;;;;;14.93;6.30;;;32.60;87.60;;;;;;5063487;28;20100;-81
2022/08/03 10:34:22;;;;;;;15.57;6.00;;;34.60;79.30;;;;;;5074167;28;20049;-81
2022/08/03 10:36:54;;;;;;;13.50;5.53;;;34.10;81.10;;;;;;5070723;28;20080;-81
2022/08/03 10:39:22;;;;;;;20.35;4.65;;;32.70;85.90;;;;;;5067086;28;20029;-81
2022/08/03 10:41:49;;;;;;;14.50;4.53;;;32.80;86.20;;;;;;5061795;28;20019;-81
2022/08/03 10:44:21;;;;;;;18.45;4.43;;;32.90;86.50;;;;;;5063810;28;20044;-81
2022/08/03 10:46:49;;;;;;;16.23;3.85;;;32.40;85.10;;;;;;5062508;28;20028;-81
2022/08/03 10:49:17;;;;;;;17.73;4.30;;;32.70;85.20;;;;;;5058889;28;20054;-81
2022/08/03 10:51:44;;;;;;;14.25;3.80;;;33.50;91.10;;;;;;5061023;28;20021;-81
2022/08/03 10:57:48;;;;;;;16.70;4.38;;;33.40;78.70;;;;;;5060098;28;20067;-81
2022/08/03 11:00:16;;;;;;;15.80;4.20;;;33.90;80.80;;;;;;5073916;28;20017;-81
2022/08/03 11:03:02;;;;;;;12.35;3.45;;;33.70;83.00;;;;;;5070139;28;20029;-80
2022/08/03 11:05:29;;;;;;;17.85;4.57;;;35.00;74.60;;;;;;5062218;28;20052;-81
2022/08/03 11:08:18;;;;;;;14.65;4.15;;;35.50;74.70;;;;;;5061922;28;20014;-81
2022/08/03 11:10:43;;;;;;;16.58;4.47;;;34.00;73.60;;;;;;5061779;28;20009;-81
2022/08/03 11:13:13;;;;;;;18.42;5.00;;;33.60;75.10;;;;;;5063094;28;20018;-81
2022/08/03 11:15:40;;;;;;;15.45;4.13;;;33.50;74.20;;;;;;5062951;28;20029;-81
2022/08/03 11:18:10;;;;;;;14.55;3.90;;;33.40;78.30;;;;;;5071759;28;20021;-80
2022/08/03 11:20:55;;;;;;;10.65;3.92;;;34.10;73.70;;;;;;5066641;28;20021;-80
2022/08/03 11:23:44;;;;;;;16.90;4.55;;;33.80;75.80;;;;;;5060791;28;20032;-80
2022/08/03 11:26:21;;;;;;;18.55;4.72;;;33.90;74.20;;;;;;5061401;28;20013;-79
2022/08/03 11:28:47;;;;;;;15.95;4.45;;;32.90;73.40;;;;;;5067313;28;20055;-81
2022/08/03 11:31:22;;;;;;;11.25;4.10;;;33.00;81.40;;;;;;5073631;28;20037;-81
2022/08/03 11:34:09;;;;;;;17.50;4.30;;;32.80;79.20;;;;;;5073584;28;20052;-78
2022/08/03 11:37:13;;;;;;;8.80;3.83;;;32.80;80.50;;;;;;5076462;28;20013;-80
2022/08/03 11:39:46;;;;;;;14.38;4.85;;;33.10;82.90;;;;;;5064533;28;20021;-79
2022/08/03 11:42:21;;;;;;;10.27;4.22;;;32.60;81.40;;;;;;5063493;28;20048;-80
2022/08/03 11:44:48;;;;;;;15.05;4.72;;;33.20;82.70;;;;;;5062016;28;20036;-79
2022/08/03 11:47:16;;;;;;;11.60;4.20;;;32.70;82.10;;;;;;5060739;28;20104;-81
2022/08/03 11:49:45;;;;;;;19.20;4.50;;;32.70;85.80;;;;;;5065126;28;20036;-82
2022/08/03 11:52:11;;;;;;;13.20;4.00;;;32.20;85.30;;;;;;5064148;28;20013;-80
2022/08/03 11:54:37;;;;;;;10.05;3.78;;;32.10;86.10;;;;;;5062985;28;20058;-80
2022/08/03 11:57:03;;;;;;;11.80;4.15;;;32.40;86.30;;;;;;5065666;28;20047;-81
2022/08/03 11:59:33;;;;;;;18.08;4.88;;;32.20;86.00;;;;;;5068453;28;20017;-80
2022/08/03 12:02:06;;;;;;;15.38;3.75;;;32.40;85.20;;;;;;5068609;28;20033;-79
2022/08/03 12:04:49;;;;;;;7.82;3.00;;;32.40;85.50;;;;;;5062904;28;20926;-79
2022/08/03 12:07:14;;;;;;;15.10;3.60;;;32.70;86.10;;;;;;5072002;28;20025;-79
2022/08/03 12:09:40;;;;;;;12.23;4.10;;;32.70;83.20;;;;;;5069758;28;20017;-79
2022/08/03 12:12:06;;;;;;;12.45;4.57;;;32.40;82.30;;;;;;5073632;28;20040;-79
2022/08/03 12:14:32;;;;;;;14.88;4.45;;;32.20;85.50;;;;;;5072848;28;20017;-79
2022/08/03 12:16:57;;;;;;;13.27;4.35;;;32.10;84.40;;;;;;5071599;28;20055;-79
2022/08/03 12:19:23;;;;;;;11.60;4.10;;;32.00;85.80;;;;;;5070345;28;20047;-79
2022/08/03 12:21:49;;;;;;;15.43;4.68;;;32.30;85.70;;;;;;5075845;28;20009;-80
2022/08/03 12:24:15;;;;;;;11.95;4.13;;;32.50;86.20;;;;;;5067171;28;20037;-79
2022/08/03 12:26:46;;;;;;;13.48;4.30;;;32.90;84.70;;;;;;5070499;28;20028;-79
2022/08/03 12:29:18;;;;;;;15.38;4.40;;;33.00;84.40;;;;;;5060580;28;20017;-80
2022/08/03 12:31:44;;;;;;;13.38;4.65;;;32.60;82.70;;;;;;5067559;28;20025;-79
2022/08/03 12:34:10;;;;;;;11.43;3.58;;;32.40;80.10;;;;;;5062376;28;20037;-79
2022/08/03 12:36:37;;;;;;;10.65;4.50;;;32.50;85.20;;;;;;5071490;28;20035;-80
2022/08/03 12:39:06;;;;;;;13.15;3.67;;;32.30;84.70;;;;;;5067159;28;20021;-80
2022/08/03 12:41:34;;;;;;;7.45;3.03;;;32.10;86.10;;;;;;5065835;28;20018;-79
2022/08/03 12:44:01;;;;;;;14.00;3.80;;;32.10;84.10;;;;;;5058920;28;20060;-79
2022/08/03 12:46:39;;;;;;;14.65;3.75;;;31.90;85.80;;;;;;5076910;28;20029;-79
2022/08/03 12:49:17;;;;;;;15.45;4.22;;;32.40;86.20;;;;;;5071171;28;20017;-79
2022/08/03 12:51:42;;;;;;;13.88;4.00;;;32.60;85.00;;;;;;5068848;28;20017;-79
2022/08/03 12:54:19;;;;;;;13.07;3.83;;;31.60;90.60;;;;;;5074217;28;20024;-79
2022/08/03 12:57:04;;;;;;;11.65;4.10;;;31.70;91.00;;;;;;5068933;28;20017;-79